INDIA METEOROLOGICAL DEPARTMENT, R.M.C. NEW DELHI
Dated:22-08-2019
METARS


Ahmedabad  
VAAH 221730Z 21006KT 4000 HZ FEW020 29/25 Q1006 NOSIG=
Allahabad  
VEAB 221730Z 27002KT 5000 BR SCT030 BKN090 28/28 Q1003 NOSIG=
Bangalore  
VOBL 221730Z 27009KT 6000 SCT012 SCT080 22/22 Q1014 NOSIG=
Baroda     
VABO 221600Z 22009KT 6000 FEW020 29/23 Q1005 NOSIG=
Bhopal     
VABP 221730Z 01004KT 3000 HZ FEW018 BKN100 23/23 Q1008 NOSIG=
Bhubaneswar
VEBS 221730Z 00000KT 4000 HZ FEW020 27/27 Q1002 NOSIG=
Chennai    
VOMM 221730Z 29010G20KT 6000 FEW018 FEW025CB BKN090 28/23 Q1007 TEMPO 5000 -TSRA=
Coimbatore 
VOCB 221730Z 20010KT 5000 BR FEW012 SCT080 24/23 Q1012 NOSIG=
Colombo    
VCBI 221740Z 17005KT 9999 FEW017 26/24 Q1012 NOSIG=
Delhi      
VIDP 221730Z 21004KT 2500 BR FEW035 SCT100 28/24 Q1004 NOSIG=
Gauhati    
VEGT 221730Z 19004KT 3000 BR SCT018 FEW025CB BKN100 28/26 Q1003 NOSIG=
Gaya       
VEGY 221730Z 09006KT 3000 HZ SCT018 BKN100 30/27 Q1002 NOSIG=
Goa        
VOGO 221730Z 30007KT 5000 BR/VCSH FEW012 BKN100 27/24 Q1009 TEMPO 4000 -RA/DZ =
Hyderabad  
VOHS 221730Z 26006KT 5000 BR FEW010 SCT015 BKN100 24/24 Q1010 NOSIG=
Indore     
VAID 221700Z 28006KT 5000 HZ SCT020 26/22 Q1008 NOSIG=
Jaipur     
VIJP 221730Z VRB02KT 2500 BR FEW030 SCT100 28/25 Q1005 NOSIG=
Kochi      
VOCI 221730Z 34003KT 3000 -RA SCT010 SCT012 FEW025CB OVC080 24/23 Q1012 NOSIG=
Kolkata    
VECC 221730Z 00000KT 2800 BR SCT018 SCT100 25/24 Q1002 NOSIG=
Kozhikode  
VOCL 221730Z 28007KT 2000 -RA SCT003 SCT012 FEW025CB OVC080 25/24 Q1011 NOSIG =
Lucknow    
VILK 221730Z 33003KT 2500 BR SCT020 SCT025 BKN100 27/26 Q1003 NOSIG=
Madurai    
VOMD 221700Z 34006KT 6000 SCT018 BKN100 29/21 Q1010 NOSIG=
Mohanbari  
VEMN 221600Z 08003KT 3500 HZ FEW025 BKN100 30/28 Q1003 NOSIG=
Mumbai     
VABB 221730Z 22006KT 4000 HZ SCT020 SCT025 29/25 Q1008 NOSIG=
Nagpur     
VANP 221730Z 31004KT 2000 -RA FEW020 FEW030CB BKN090 24/23 Q1006 TEMPO 1000 RA=
Patna      
VEPT 221730Z 12003KT 3500 HZ SCT018 BKN100 30/27 Q1001 NOSIG=
Raipur     
VERP 221700Z 23004KT 6000 FEW020 27/24 Q1004 NOSIG=
Surat     
VASU 221730Z 22006KT 5000 HZ FEW012 SCT020 28/25 Q1007 NOSIG=
Ranchi     
VERC 221700Z 18002KT 3000 HZ SCT018 BKN100 27/25 Q1007 NOSIG=
Trichy     
VOTR 221730Z 28010KT 5000 BR SCT016 BKN080 28/24 Q1008 NOSIG=
Trivandrum 
VOTV 221730Z 35005KT 4000 HZ FEW010 SCT012 FEW025CB BKN080 25/24 Q1011 NOSIG=
Varanasi   
VEBN 221730Z 25002KT 3000 HZ SCT025 SCT100 28/25 Q1001 NOSIG=
Vizag      
VOVZ 221730Z VRB02KT 5000 BR FEW018 SCT090 28/26 Q1002 NOSIG =
Male       
VRMM 221700Z 27009KT 9999 FEW018TCU BKN260 29/25 Q1012 NOSIG=
Gan        
VRMG 221700Z 29005KT 9999 FEW018TCU BKN120 28/25 Q1013 NOSIG=
Kathmandu  
VNKT 221750Z 07003KT 360V100 7000 FEW015 23/22 Q1013 NOSIG=
Dhaka      
VGHS 221730Z 24003KT 3500 HZ SCT012 BKN100 28/25 Q1004 NOSIG=
Colombo    
VCBI 221740Z 17005KT 9999 FEW017 26/24 Q1012 NOSIG=
Karachi    
OPKC 221720Z 24009KT 6000 SCT030 28/23 Q1005 NOSIG=
Lahore     
OPLA 221725Z 15003KT 4000 FU FEW100 31/23 Q1003 RMK A29.62=
Gorakhpur  
VEGK 221730Z VRB02KT 6000 FEW030 BKN250 29/29 Q1002 NOSIG=
Agra       
VIAG 221730Z VRB01KT 5000 BR FEW025 SCT200 25/25 Q1004 BECMG 4000=
Bagdogra   
VEBD 221730Z VRB01KT 6000 TS SCT025 FEW030CB BKN090 27/24 Q1004 TEMPO TSRA=
Gwalior    
VIGR 221730Z VRB01KT 6000 FEW025 SCT090 26/25 Q1004 NOSIG=
Pune       
VAPO 221730Z 28005KT 6000 FEW030 SCT090 22/20 Q1012 NOSIG=
Jamnagar   
VAJM 221730Z 21004KT 6000 FEW025 27/24 Q1006 NOSIG=